地図

経路データ

SID SEASON NUMBER BASIN SUBBASIN NAME ISO_TIME NATURE LAT LON WMO_WIND WMO_PRES WMO_AGENCY TRACK_TYPE DIST2LAND LANDFALL IFLAG USA_AGENCY USA_ATCF_ID USA_LAT USA_LON USA_RECORD USA_STATUS USA_WIND USA_PRES USA_SSHS USA_R34_NE USA_R34_SE USA_R34_SW USA_R34_NW USA_R50_NE USA_R50_SE USA_R50_SW USA_R50_NW USA_R64_NE USA_R64_SE USA_R64_SW USA_R64_NW USA_POCI USA_ROCI USA_RMW USA_EYE TOKYO_LAT TOKYO_LON TOKYO_GRADE TOKYO_WIND TOKYO_PRES TOKYO_R50_DIR TOKYO_R50_LONG TOKYO_R50_SHORT TOKYO_R30_DIR TOKYO_R30_LONG TOKYO_R30_SHORT TOKYO_LAND CMA_LAT CMA_LON CMA_CAT CMA_WIND CMA_PRES HKO_LAT HKO_LON HKO_CAT HKO_WIND HKO_PRES NEWDELHI_LAT NEWDELHI_LON NEWDELHI_GRADE NEWDELHI_WIND NEWDELHI_PRES NEWDELHI_CI NEWDELHI_DP NEWDELHI_POCI REUNION_LAT REUNION_LON REUNION_TYPE REUNION_WIND REUNION_PRES REUNION_TNUM REUNION_CI REUNION_RMW REUNION_R34_NE REUNION_R34_SE REUNION_R34_SW REUNION_R34_NW REUNION_R50_NE REUNION_R50_SE REUNION_R50_SW REUNION_R50_NW REUNION_R64_NE REUNION_R64_SE REUNION_R64_SW REUNION_R64_NW BOM_LAT BOM_LON BOM_TYPE BOM_WIND BOM_PRES BOM_TNUM BOM_CI BOM_RMW BOM_R34_NE BOM_R34_SE BOM_R34_SW BOM_R34_NW BOM_R50_NE BOM_R50_SE BOM_R50_SW BOM_R50_NW BOM_R64_NE BOM_R64_SE BOM_R64_SW BOM_R64_NW BOM_ROCI BOM_POCI BOM_EYE BOM_POS_METHOD BOM_PRES_METHOD NADI_LAT NADI_LON NADI_CAT NADI_WIND NADI_PRES WELLINGTON_LAT WELLINGTON_LON WELLINGTON_WIND WELLINGTON_PRES DS824_LAT DS824_LON DS824_STAGE DS824_WIND DS824_PRES TD9636_LAT TD9636_LON TD9636_STAGE TD9636_WIND TD9636_PRES TD9635_LAT TD9635_LON TD9635_WIND TD9635_PRES TD9635_ROCI NEUMANN_LAT NEUMANN_LON NEUMANN_CLASS NEUMANN_WIND NEUMANN_PRES MLC_LAT MLC_LON MLC_CLASS MLC_WIND MLC_PRES USA_GUST BOM_GUST BOM_GUST_PER REUNION_GUST REUNION_GUST_PER USA_SEAHGT USA_SEARAD_NE USA_SEARAD_SE USA_SEARAD_SW USA_SEARAD_NW STORM_SPEED STORM_DIR
1902040S08073 1902 8 SI MM NOT_NAMED 1902-02-09 00:00:00 TS -8.00000 73.0000 main 1765 1765 _________O____ -1 -8.00000 73.0000 TC 9 223
1902040S08073 1902 8 SI MM NOT_NAMED 1902-02-09 03:00:00 TS -8.31004 72.7076 main 1810 1810 _________P____ -1 -8.31004 72.7076 TC 8 225
1902040S08073 1902 8 SI MM NOT_NAMED 1902-02-09 06:00:00 TS -8.60000 72.4000 main 1856 1856 _________O____ -1 -8.60000 72.4000 TC 8 229
1902040S08073 1902 8 SI MM NOT_NAMED 1902-02-09 09:00:00 TS -8.85746 72.0649 main 1901 1901 _________P____ -1 -8.85746 72.0649 TC 9 234
1902040S08073 1902 8 SI MM NOT_NAMED 1902-02-09 12:00:00 TS -9.10000 71.7000 main 1942 1895 _________O____ -1 -9.10000 71.7000 TC 9 237
1902040S08073 1902 8 SI MM NOT_NAMED 1902-02-09 15:00:00 TS -9.34998 71.3075 main 1895 1840 _________P____ -1 -9.34998 71.3075 TC 9 238
1902040S08073 1902 8 SI MM NOT_NAMED 1902-02-09 18:00:00 TS -9.60000 70.9000 main 1840 1793 _________O____ -1 -9.60000 70.9000 TC 9 238
1902040S08073 1902 8 SI MM NOT_NAMED 1902-02-09 21:00:00 TS -9.84998 70.4925 main 1793 1737 _________P____ -1 -9.84998 70.4925 TC 9 238
1902040S08073 1902 8 SI MM NOT_NAMED 1902-02-10 00:00:00 TS -10.1000 70.1000 main 1737 1698 _________O____ -1 -10.1000 70.1000 TC 9 236
1902040S08073 1902 8 SI MM NOT_NAMED 1902-02-10 03:00:00 TS -10.3499 69.7424 main 1690 1643 _________P____ -1 -10.3499 69.7424 TC 9 234
1902040S08073 1902 8 SI MM NOT_NAMED 1902-02-10 06:00:00 TS -10.6000 69.4000 main 1643 1604 _________O____ -1 -10.6000 69.4000 TC 9 234
1902040S08073 1902 8 SI MM NOT_NAMED 1902-02-10 09:00:00 TS -10.8575 69.0425 main 1588 1549 _________P____ -1 -10.8575 69.0425 TC 9 234
1902040S08073 1902 8 SI MM NOT_NAMED 1902-02-10 12:00:00 TS -11.1000 68.7000 main 1549 1509 _________O____ -1 -11.1000 68.7000 TC 8 235
1902040S08073 1902 8 SI MM NOT_NAMED 1902-02-10 15:00:00 TS -11.3074 68.3924 main 1509 1470 _________P____ -1 -11.3074 68.3924 TC 7 236
1902040S08073 1902 8 SI MM NOT_NAMED 1902-02-10 18:00:00 TS -11.5000 68.1000 main 1470 1431 _________O____ -1 -11.5000 68.1000 TC 7 236
1902040S08073 1902 8 SI MM NOT_NAMED 1902-02-10 21:00:00 TS -11.6924 67.8149 main 1431 1392 _________P____ -1 -11.6924 67.8149 TC 7 236
1902040S08073 1902 8 SI MM NOT_NAMED 1902-02-11 00:00:00 TS -11.9000 67.5000 main 1392 1344 _________O____ -1 -11.9000 67.5000 TC 8 237
1902040S08073 1902 8 SI MM NOT_NAMED 1902-02-11 03:00:00 TS -12.1350 67.1150 main 1344 1290 _________P____ -1 -12.1350 67.1150 TC 9 237
1902040S08073 1902 8 SI MM NOT_NAMED 1902-02-11 06:00:00 TS -12.4000 66.7000 main 1290 1235 _________O____ -1 -12.4000 66.7000 TC 10 235
1902040S08073 1902 8 SI MM NOT_NAMED 1902-02-11 09:00:00 TS -12.7075 66.2925 main 1235 1180 _________P____ -1 -12.7075 66.2925 TC 10 232
1902040S08073 1902 8 SI MM NOT_NAMED 1902-02-11 12:00:00 TS -13.0000 65.9000 main 1180 1141 _________O____ -1 -13.0000 65.9000 TC 9 236
1902040S08073 1902 8 SI MM NOT_NAMED 1902-02-11 15:00:00 TS -13.2074 65.5349 main 1134 1095 _________P____ -1 -13.2074 65.5349 TC 8 240
1902040S08073 1902 8 SI MM NOT_NAMED 1902-02-11 18:00:00 TS -13.4000 65.2000 main 1095 1056 _________O____ -1 -13.4000 65.2000 TC 7 235
1902040S08073 1902 8 SI MM NOT_NAMED 1902-02-11 21:00:00 TS -13.6349 64.9074 main 1056 1009 _________P____ -1 -13.6349 64.9074 TC 8 229
1902040S08073 1902 8 SI MM NOT_NAMED 1902-02-12 00:00:00 TS -13.9000 64.6000 main 1009 955 _________O____ -1 -13.9000 64.6000 TC 9 230
1902040S08073 1902 8 SI MM NOT_NAMED 1902-02-12 03:00:00 TS -14.2000 64.2150 main 955 900 _________P____ -1 -14.2000 64.2150 TC 10 232
1902040S08073 1902 8 SI MM NOT_NAMED 1902-02-12 06:00:00 TS -14.5000 63.8000 main 900 854 _________O____ -1 -14.5000 63.8000 TC 10 235
1902040S08073 1902 8 SI MM NOT_NAMED 1902-02-12 09:00:00 TS -14.7499 63.3998 main 854 800 _________P____ -1 -14.7499 63.3998 TC 9 237
1902040S08073 1902 8 SI MM NOT_NAMED 1902-02-12 12:00:00 TS -15.0000 63.0000 main 800 746 _________O____ -1 -15.0000 63.0000 TC 9 234
1902040S08073 1902 8 SI MM NOT_NAMED 1902-02-12 15:00:00 TS -15.2999 62.6074 main 746 693 _________P____ -1 -15.2999 62.6074 TC 10 232
1902040S08073 1902 8 SI MM NOT_NAMED 1902-02-12 18:00:00 TS -15.6000 62.2000 main 693 647 _________O____ -1 -15.6000 62.2000 TC 10 236
1902040S08073 1902 8 SI MM NOT_NAMED 1902-02-12 21:00:00 TS -15.8424 61.7647 main 647 587 _________P____ -1 -15.8424 61.7647 TC 10 240
1902040S08073 1902 8 SI MM NOT_NAMED 1902-02-13 00:00:00 TS -16.1000 61.3000 main 587 527 _________O____ -1 -16.1000 61.3000 TC 11 237
1902040S08073 1902 8 SI MM NOT_NAMED 1902-02-13 03:00:00 TS -16.4350 60.8000 main 527 459 _________P____ -1 -16.4350 60.8000 TC 12 234
1902040S08073 1902 8 SI MM NOT_NAMED 1902-02-13 06:00:00 TS -16.8000 60.3000 main 459 407 _________O____ -1 -16.8000 60.3000 TC 12 232
1902040S08073 1902 8 SI MM NOT_NAMED 1902-02-13 09:00:00 TS -17.1499 59.8348 main 402 341 _________P____ -1 -17.1499 59.8348 TC 11 231
1902040S08073 1902 8 SI MM NOT_NAMED 1902-02-13 12:00:00 TS -17.5000 59.4000 main 341 291 _________O____ -1 -17.5000 59.4000 TC 11 230
1902040S08073 1902 8 SI MM NOT_NAMED 1902-02-13 15:00:00 TS -17.8425 58.9774 main 291 232 _________P____ -1 -17.8425 58.9774 TC 10 227
1902040S08073 1902 8 SI MM NOT_NAMED 1902-02-13 18:00:00 TS -18.2000 58.6000 main 232 189 _________O____ -1 -18.2000 58.6000 TC 10 222
1902040S08073 1902 8 SI MM NOT_NAMED 1902-02-13 21:00:00 TS -18.5699 58.2847 main 179 126 _________P____ -1 -18.5699 58.2847 TC 10 215
1902040S08073 1902 8 SI MM NOT_NAMED 1902-02-14 00:00:00 TS -19.0000 58.0000 main 126 67 _________O____ -1 -19.0000 58.0000 TC 11 210
1902040S08073 1902 8 SI MM NOT_NAMED 1902-02-14 03:00:00 TS -19.5275 57.6925 main 67 10 _________P____ -1 -19.5275 57.6925 TC 12 207
1902040S08073 1902 8 SI MM NOT_NAMED 1902-02-14 06:00:00 TS -20.1000 57.4000 main 10 10 _________O____ -1 -20.1000 57.4000 TC 12 205
1902040S08073 1902 8 SI MM NOT_NAMED 1902-02-14 09:00:00 TS -20.6500 57.1348 main 23 23 _________P____ -1 -20.6500 57.1348 TC 12 203
1902040S08073 1902 8 SI MM NOT_NAMED 1902-02-14 12:00:00 TS -21.2000 56.9000 main 88 88 _________O____ -1 -21.2000 56.9000 TC 12 201
1902040S08073 1902 8 SI MM NOT_NAMED 1902-02-14 15:00:00 TS -21.7425 56.6848 main 103 103 _________P____ -1 -21.7425 56.6848 TC 12 199
1902040S08073 1902 8 SI MM NOT_NAMED 1902-02-14 18:00:00 TS -22.3000 56.5000 main 133 133 _________O____ -1 -22.3000 56.5000 TC 12 195
1902040S08073 1902 8 SI MM NOT_NAMED 1902-02-14 21:00:00 TS -22.8900 56.3428 main 182 182 _________P____ -1 -22.8900 56.3428 TC 12 193
1902040S08073 1902 8 SI MM NOT_NAMED 1902-02-15 00:00:00 TS -23.5000 56.2000 main 242 _________O____ -1 -23.5000 56.2000 TC 13 192

IBTrACS Databaseについて

本データベースは、米国NOAAが公開する1842年以降の世界の熱帯低気圧のベストトラックデータアーカイブInternational Best Track Archive for Climate Stewardship (IBTrACS)を、ウェブで閲覧しやすい形式に変換したものです。

最終更新日:2021-11-26